createdAt,value
2022-09-23T00:00:45.790Z,101835.47
2022-09-23T00:03:50.254Z,101834.03
2022-09-23T00:06:54.446Z,101832.97
2022-09-23T00:09:57.194Z,101822.88
2022-09-23T00:13:00.434Z,101825.81
2022-09-23T00:16:05.116Z,101823.91
2022-09-23T00:19:07.814Z,101822.25
2022-09-23T00:22:12.275Z,101820.34
2022-09-23T00:25:14.871Z,101827.47
2022-09-23T00:28:17.826Z,101820.56
2022-09-23T00:31:23.210Z,101822.22
2022-09-23T00:34:26.105Z,101815.50
2022-09-23T00:37:30.379Z,101818.00
2022-09-23T00:40:33.364Z,101810.47
2022-09-23T00:43:43.620Z,101807.72
2022-09-23T00:46:46.415Z,101815.50
2022-09-23T00:49:55.275Z,101811.28
2022-09-23T00:53:01.767Z,101812.78
2022-09-23T00:56:07.914Z,101815.28
2022-09-23T00:59:11.716Z,101814.66
2022-09-23T01:02:18.475Z,101802.47
2022-09-23T01:05:24.469Z,101800.34
2022-09-23T01:08:29.236Z,101789.66
2022-09-23T01:11:41.184Z,101796.41
2022-09-23T01:14:50.230Z,101792.38
2022-09-23T01:18:00.854Z,101789.25
2022-09-23T01:21:14.918Z,101799.94
2022-09-23T01:24:46.342Z,101789.25
2022-09-23T01:28:06.741Z,101786.50
2022-09-23T01:31:17.480Z,101778.34
2022-09-23T01:34:27.500Z,101778.34
2022-09-23T01:37:37.648Z,101781.06
2022-09-23T01:40:50.111Z,101779.13
2022-09-23T01:44:01.789Z,101780.34
2022-09-23T01:47:12.756Z,101769.06
2022-09-23T01:50:37.864Z,101770.75
2022-09-23T01:53:46.765Z,101765.88
2022-09-23T01:56:56.203Z,101767.38
2022-09-23T02:00:05.327Z,101766.09
2022-09-23T02:03:15.690Z,101756.88
2022-09-23T02:06:24.490Z,101756.81
2022-09-23T02:09:32.742Z,101753.25
2022-09-23T02:12:38.744Z,101752.84
2022-09-23T02:15:47.287Z,101756.00
2022-09-23T02:18:57.002Z,101754.53
2022-09-23T02:22:10.430Z,101748.22
2022-09-23T02:25:16.222Z,101742.78
2022-09-23T02:28:32.452Z,101745.72
2022-09-23T02:31:40.301Z,101735.41
2022-09-23T02:34:48.053Z,101739.16
2022-09-23T02:37:58.866Z,101727.84
2022-09-23T02:41:09.392Z,101727.25
2022-09-23T02:44:16.117Z,101719.47
2022-09-23T02:47:25.882Z,101722.63
2022-09-23T02:50:30.899Z,101714.59
2022-09-23T02:53:34.534Z,101710.66
2022-09-23T02:56:38.170Z,101715.84
2022-09-23T02:59:40.981Z,101708.09
2022-09-23T03:03:02.748Z,101703.91
2022-09-23T03:06:17.393Z,101705.81
2022-09-23T03:09:26.643Z,101703.06
2022-09-23T03:12:41.903Z,101702.03
2022-09-23T03:15:53.361Z,101699.75
2022-09-23T03:19:02.887Z,101702.28
2022-09-23T03:22:11.491Z,101695.78
2022-09-23T03:25:19.229Z,101690.75
2022-09-23T03:28:25.519Z,101697.47
2022-09-23T03:31:28.291Z,101691.78
2022-09-23T03:34:34.791Z,101690.09
2022-09-23T03:37:44.699Z,101685.69
2022-09-23T03:40:50.936Z,101684.22
2022-09-23T03:43:53.961Z,101678.97
2022-09-23T03:47:02.388Z,101680.00
2022-09-23T03:50:05.728Z,101677.28
2022-09-23T03:53:09.744Z,101669.34
2022-09-23T03:56:12.310Z,101671.44
2022-09-23T03:59:19.671Z,101673.53
2022-09-23T04:02:22.363Z,101671.81
2022-09-23T04:05:25.187Z,101671.16
2022-09-23T04:08:29.136Z,101668.03
2022-09-23T04:11:32.046Z,101672.00
2022-09-23T04:14:34.791Z,101658.81
2022-09-23T04:17:37.662Z,101658.81
2022-09-23T04:20:40.335Z,101658.34
2022-09-23T04:23:44.733Z,101664.63
2022-09-23T04:26:47.311Z,101655.63
2022-09-23T04:29:50.237Z,101654.56
2022-09-23T04:32:53.357Z,101648.03
2022-09-23T04:35:56.841Z,101644.25
2022-09-23T04:39:00.792Z,101650.69
2022-09-23T04:42:04.173Z,101647.34
2022-09-23T04:45:07.614Z,101650.91
2022-09-23T04:48:10.650Z,101648.44
2022-09-23T04:51:15.415Z,101644.00
2022-09-23T04:54:19.368Z,101640.44
2022-09-23T04:57:21.929Z,101640.69
2022-09-23T05:00:24.615Z,101639.63
2022-09-23T05:03:27.255Z,101637.28
2022-09-23T05:06:32.312Z,101645.66
2022-09-23T05:09:36.328Z,101641.47
2022-09-23T05:12:39.054Z,101638.75
2022-09-23T05:15:41.588Z,101643.56
2022-09-23T05:18:45.254Z,101643.34
2022-09-23T05:21:47.974Z,101644.00
2022-09-23T05:24:52.046Z,101642.09
2022-09-23T05:27:54.614Z,101643.78
2022-09-23T05:31:03.267Z,101648.19
2022-09-23T05:34:06.905Z,101643.84
2022-09-23T05:37:09.793Z,101640.91
2022-09-23T05:40:13.855Z,101644.47
2022-09-23T05:43:17.517Z,101649.13
2022-09-23T05:46:23.274Z,101642.03
2022-09-23T05:49:42.621Z,101639.97
2022-09-23T05:52:48.721Z,101631.81
2022-09-23T05:55:54.539Z,101642.16
2022-09-23T05:58:58.946Z,101638.59
2022-09-23T06:02:01.909Z,101640.78
2022-09-23T06:05:04.803Z,101635.72
2022-09-23T06:08:08.231Z,101633.38
2022-09-23T06:11:12.504Z,101636.13
2022-09-23T06:14:15.635Z,101629.63
2022-09-23T06:17:18.304Z,101625.91
2022-09-23T06:20:20.973Z,101631.19
2022-09-23T06:23:26.103Z,101630.19
2022-09-23T06:26:33.739Z,101632.03
2022-09-23T06:29:36.933Z,101629.78
2022-09-23T06:32:39.835Z,101640.94
2022-09-23T06:35:47.569Z,101631.56
2022-09-23T06:38:56.390Z,101636.31
2022-09-23T06:42:00.340Z,101632.22
2022-09-23T06:45:03.171Z,101641.84
2022-09-23T06:48:08.283Z,101635.00
2022-09-23T06:51:19.058Z,101637.84
2022-09-23T06:54:21.695Z,101637.13
2022-09-23T06:57:25.662Z,101634.13
2022-09-23T07:00:29.129Z,101635.63
2022-09-23T07:03:32.116Z,101638.50
2022-09-23T07:06:34.744Z,101643.84
2022-09-23T07:09:37.751Z,101638.72
2022-09-23T07:12:42.182Z,101639.56
2022-09-23T07:15:50.700Z,101634.03
2022-09-23T07:18:53.560Z,101635.97
2022-09-23T07:21:57.007Z,101632.66
2022-09-23T07:24:59.764Z,101631.50
2022-09-23T07:28:04.035Z,101635.38
2022-09-23T07:31:09.785Z,101636.53
2022-09-23T07:34:12.815Z,101635.69
2022-09-23T07:37:16.481Z,101628.75
2022-09-23T07:40:19.299Z,101627.66
2022-09-23T07:43:23.477Z,101628.38
2022-09-23T07:46:28.146Z,101628.53
2022-09-23T07:49:30.772Z,101626.38
2022-09-23T07:52:33.420Z,101635.56
2022-09-23T07:55:36.656Z,101630.66
2022-09-23T07:58:40.549Z,101631.41
2022-09-23T08:01:46.307Z,101622.78
2022-09-23T08:04:50.335Z,101629.16
2022-09-23T08:07:53.025Z,101628.50
2022-09-23T08:11:02.579Z,101629.47
2022-09-23T08:14:08.611Z,101622.66
2022-09-23T08:17:12.952Z,101624.41
2022-09-23T08:20:35.630Z,101626.03
2022-09-23T08:23:38.261Z,101627.50
2022-09-23T08:26:40.851Z,101622.88
2022-09-23T08:29:44.786Z,101625.38
2022-09-23T08:32:51.403Z,101617.88
2022-09-23T08:35:59.253Z,101612.66
2022-09-23T08:39:01.947Z,101614.88
2022-09-23T08:42:17.558Z,101609.09
2022-09-23T08:45:24.318Z,101602.69
2022-09-23T08:48:30.622Z,101605.22
2022-09-23T08:51:40.369Z,101608.81
2022-09-23T08:54:44.656Z,101603.25
2022-09-23T09:01:34.655Z,101605.50
2022-09-23T09:04:44.482Z,101605.19
2022-09-23T09:07:47.368Z,101594.41
2022-09-23T09:10:50.436Z,101599.66
2022-09-23T09:14:02.393Z,101592.75
2022-09-23T09:17:10.640Z,101596.59
2022-09-23T09:20:23.367Z,101592.72
2022-09-23T09:23:34.826Z,101598.25
2022-09-23T09:26:41.008Z,101600.16
2022-09-23T09:29:49.918Z,101596.22
2022-09-23T09:33:00.967Z,101589.72
2022-09-23T09:36:16.132Z,101588.72
2022-09-23T09:39:22.891Z,101571.91
2022-09-23T09:42:39.095Z,101576.38
2022-09-23T09:45:59.213Z,101569.84
2022-09-23T09:49:09.407Z,101566.94
2022-09-23T09:52:14.109Z,101563.00
2022-09-23T09:55:26.355Z,101551.56
2022-09-23T09:58:33.511Z,101550.78
2022-09-23T10:01:36.847Z,101549.91
2022-09-23T10:04:41.785Z,101553.56
2022-09-23T10:07:44.355Z,101541.03
2022-09-23T10:10:55.009Z,101548.31
2022-09-23T10:14:10.982Z,101542.06
2022-09-23T10:17:20.488Z,101547.31
2022-09-23T10:20:24.833Z,101540.41
2022-09-23T10:23:33.216Z,101533.63
2022-09-23T10:26:43.218Z,101523.00
2022-09-23T10:29:51.759Z,101532.09
2022-09-23T10:32:57.126Z,101528.09
2022-09-23T10:36:01.646Z,101524.28
2022-09-23T10:39:23.766Z,101527.81
2022-09-23T10:43:01.125Z,101522.00
2022-09-23T10:46:24.576Z,101528.47
2022-09-23T10:49:43.832Z,101519.78
2022-09-23T10:52:57.440Z,101520.88
2022-09-23T10:56:16.792Z,101516.31
2022-09-23T10:59:50.213Z,101504.63
2022-09-23T11:03:17.820Z,101512.56
2022-09-23T11:06:26.869Z,101516.19
2022-09-23T11:09:41.333Z,101509.34
2022-09-23T11:12:53.916Z,101500.78
2022-09-23T11:16:04.646Z,101491.84
2022-09-23T11:19:23.489Z,101493.16
2022-09-23T11:22:43.875Z,101492.34
2022-09-23T11:25:56.016Z,101479.03
2022-09-23T11:29:14.565Z,101470.66
2022-09-23T11:32:35.529Z,101471.97
2022-09-23T11:35:45.954Z,101471.56
2022-09-23T11:38:52.372Z,101459.47
2022-09-23T11:42:00.767Z,101461.31
2022-09-23T11:45:10.865Z,101460.84
2022-09-23T11:48:18.207Z,101447.84
2022-09-23T11:51:25.679Z,101455.91
2022-09-23T11:54:32.878Z,101437.22
2022-09-23T11:57:48.936Z,101437.03
2022-09-23T12:01:01.310Z,101430.94
2022-09-23T12:04:18.609Z,101429.63
2022-09-23T12:07:30.099Z,101428.34
2022-09-23T12:10:44.851Z,101429.94
2022-09-23T12:13:56.402Z,101421.06
2022-09-23T12:17:16.110Z,101422.72
2022-09-23T12:20:42.940Z,101424.00
2022-09-23T12:24:03.100Z,101416.00
2022-09-23T12:27:10.985Z,101410.22
2022-09-23T12:30:20.284Z,101413.75
2022-09-23T12:33:26.603Z,101405.59
2022-09-23T12:36:34.730Z,101401.75
2022-09-23T12:39:39.256Z,101402.47
2022-09-23T12:42:46.115Z,101387.38
2022-09-23T12:45:50.813Z,101390.00
2022-09-23T12:49:02.231Z,101394.00
2022-09-23T12:52:25.071Z,101387.38
2022-09-23T12:55:51.704Z,101381.72
2022-09-23T12:59:14.197Z,101378.00
2022-09-23T13:02:28.556Z,101370.78
2022-09-23T13:05:57.107Z,101371.38
2022-09-23T13:09:02.590Z,101368.28
2022-09-23T13:12:09.667Z,101361.88
2022-09-23T13:15:21.426Z,101355.16
2022-09-23T13:18:59.725Z,101359.78
2022-09-23T13:22:09.398Z,101356.34
2022-09-23T13:25:20.834Z,101349.50
2022-09-23T13:28:31.047Z,101340.97
2022-09-23T13:31:35.354Z,101337.13
2022-09-23T13:34:41.496Z,101343.94
2022-09-23T13:37:47.695Z,101325.06
2022-09-23T13:40:50.873Z,101329.00
2022-09-23T13:43:58.504Z,101328.56
2022-09-23T13:47:03.782Z,101323.00
2022-09-23T13:50:17.501Z,101307.25
2022-09-23T13:53:25.424Z,101308.75
2022-09-23T13:56:30.405Z,101308.66
2022-09-23T13:59:39.334Z,101291.66
2022-09-23T14:02:43.395Z,101293.97
2022-09-23T14:05:49.124Z,101296.97
2022-09-23T14:08:51.829Z,101293.78
2022-09-23T14:11:57.157Z,101295.69
2022-09-23T14:14:59.788Z,101305.31
2022-09-23T14:18:07.185Z,101296.09
2022-09-23T14:21:30.356Z,101290.44
2022-09-23T14:24:35.572Z,101291.38
2022-09-23T14:27:39.685Z,101283.13
2022-09-23T14:30:44.022Z,101288.53
2022-09-23T14:33:46.893Z,101278.00
2022-09-23T14:37:09.391Z,101283.28
2022-09-23T14:40:17.892Z,101275.59
2022-09-23T14:43:25.120Z,101274.06
2022-09-23T14:46:29.341Z,101271.84
2022-09-23T14:49:35.429Z,101276.00
2022-09-23T14:52:48.951Z,101271.19
2022-09-23T14:55:57.388Z,101272.63
2022-09-23T14:59:01.683Z,101275.25
2022-09-23T15:02:28.999Z,101272.91
2022-09-23T15:05:40.309Z,101264.34
2022-09-23T15:08:46.509Z,101258.34
2022-09-23T15:11:49.144Z,101264.13
2022-09-23T15:14:54.969Z,101257.28
2022-09-23T15:18:05.760Z,101257.03
2022-09-23T15:21:11.529Z,101260.47
2022-09-23T15:24:39.188Z,101246.34
2022-09-23T15:27:42.070Z,101248.94
2022-09-23T15:30:45.311Z,101248.13
2022-09-23T15:33:48.672Z,101252.31
2022-09-23T15:36:51.300Z,101243.41
2022-09-23T15:39:55.538Z,101247.31
2022-09-23T15:43:00.650Z,101242.41
2022-09-23T15:46:09.253Z,101248.53
2022-09-23T15:49:23.057Z,101243.94
2022-09-23T15:52:26.511Z,101240.41
2022-09-23T15:55:31.564Z,101241.00
2022-09-23T15:58:34.461Z,101243.25
2022-09-23T16:01:38.423Z,101237.78
2022-09-23T16:04:42.075Z,101230.88
2022-09-23T16:07:45.303Z,101231.97
2022-09-23T16:10:49.323Z,101230.66
2022-09-23T16:13:52.238Z,101237.06
2022-09-23T16:16:54.931Z,101232.38
2022-09-23T16:19:57.695Z,101230.19
2022-09-23T16:23:03.183Z,101236.00
2022-09-23T16:26:09.553Z,101233.84
2022-09-23T16:29:12.442Z,101226.97
2022-09-23T16:32:18.900Z,101228.41
2022-09-23T16:35:26.646Z,101230.66
2022-09-23T16:38:29.939Z,101225.97
2022-09-23T16:41:34.320Z,101224.63
2022-09-23T16:44:37.391Z,101228.00
2022-09-23T16:47:44.345Z,101223.91
2022-09-23T16:50:47.654Z,101223.41
2022-09-23T16:53:51.604Z,101219.81
2022-09-23T16:56:55.503Z,101215.97
2022-09-23T17:00:16.150Z,101207.44
2022-09-23T17:03:36.247Z,101209.66
2022-09-23T17:06:44.183Z,101211.63
2022-09-23T17:09:46.916Z,101205.56
2022-09-23T17:12:52.632Z,101200.31
2022-09-23T17:15:55.646Z,101200.63
2022-09-23T17:18:58.754Z,101197.84
2022-09-23T17:22:01.305Z,101201.69
2022-09-23T17:25:04.397Z,101195.59
2022-09-23T17:28:08.453Z,101197.78
2022-09-23T17:31:11.244Z,101204.13
2022-09-23T17:34:13.832Z,101198.28
2022-09-23T17:37:16.920Z,101194.44
2022-09-23T17:40:19.538Z,101196.28
2022-09-23T17:43:25.038Z,101195.16
2022-09-23T17:46:29.131Z,101205.88
2022-09-23T17:49:35.428Z,101201.97
2022-09-23T17:52:38.230Z,101198.03
2022-09-23T17:55:40.929Z,101199.88
2022-09-23T17:58:45.960Z,101199.03
2022-09-23T18:01:48.618Z,101199.50
2022-09-23T18:04:51.248Z,101204.41
2022-09-23T18:07:53.983Z,101201.63
2022-09-23T18:10:56.541Z,101202.66
2022-09-23T18:14:02.125Z,101218.63
2022-09-23T18:17:04.721Z,101203.41
2022-09-23T18:20:09.174Z,101209.75
2022-09-23T18:23:12.153Z,101203.41
2022-09-23T18:26:16.175Z,101206.97
2022-09-23T18:29:20.292Z,101214.16
2022-09-23T18:32:22.887Z,101205.03
2022-09-23T18:35:25.441Z,101206.41
2022-09-23T18:38:28.283Z,101199.50
2022-09-23T18:41:31.340Z,101204.69
2022-09-23T18:44:35.711Z,101201.63
2022-09-23T18:48:10.929Z,101208.78
2022-09-23T18:51:29.278Z,101193.59
2022-09-23T18:54:32.044Z,101197.38
2022-09-23T18:57:34.967Z,101192.38
2022-09-23T19:00:39.446Z,101199.47
2022-09-23T19:03:42.441Z,101190.38
2022-09-23T19:06:45.355Z,101193.06
2022-09-23T19:09:48.111Z,101197.31
2022-09-23T19:12:50.991Z,101195.38
2022-09-23T19:15:55.110Z,101192.97
2022-09-23T19:18:57.719Z,101191.00
2022-09-23T19:22:01.343Z,101197.41
2022-09-23T19:25:04.359Z,101191.97
2022-09-23T19:28:08.347Z,101194.13
2022-09-23T19:31:13.959Z,101194.31
2022-09-23T19:34:18.590Z,101189.63
2022-09-23T19:37:21.251Z,101189.69
2022-09-23T19:40:23.938Z,101183.91
2022-09-23T19:43:28.201Z,101174.91
2022-09-23T19:46:33.359Z,101177.16
2022-09-23T19:49:36.184Z,101179.34
2022-09-23T19:52:39.157Z,101175.25
2022-09-23T19:55:42.860Z,101184.00
2022-09-23T19:58:47.219Z,101184.00
2022-09-23T20:01:51.212Z,101180.63
2022-09-23T20:04:54.171Z,101178.38
2022-09-23T20:07:58.917Z,101177.94
2022-09-23T20:11:11.264Z,101184.00
2022-09-23T20:14:13.907Z,101177.22
2022-09-23T20:17:19.215Z,101178.31
2022-09-23T20:20:21.784Z,101175.66
2022-09-23T20:23:24.575Z,101171.03
2022-09-23T20:26:44.766Z,101164.69
2022-09-23T20:29:48.631Z,101163.03
2022-09-23T20:32:52.568Z,101160.50
2022-09-23T20:35:57.125Z,101168.28
2022-09-23T20:39:01.397Z,101159.44
2022-09-23T20:42:04.407Z,101153.03
2022-09-23T20:45:08.238Z,101163.22
2022-09-23T20:48:12.967Z,101158.47
2022-09-23T20:51:15.779Z,101154.94
2022-09-23T20:54:19.542Z,101160.97
2022-09-23T20:57:22.097Z,101158.22
2022-09-23T21:00:24.846Z,101157.91
2022-09-23T21:03:29.365Z,101154.34
2022-09-23T21:06:32.688Z,101152.41
2022-09-23T21:09:35.303Z,101146.34
2022-09-23T21:12:38.006Z,101154.59
2022-09-23T21:15:41.892Z,101147.66
2022-09-23T21:18:46.898Z,101146.34
2022-09-23T21:21:49.515Z,101143.66
2022-09-23T21:25:26.270Z,101133.72
2022-09-23T21:28:15.756Z,101133.47
2022-09-23T21:31:23.789Z,101138.47
2022-09-23T21:34:30.101Z,101134.88
2022-09-23T21:37:32.951Z,101130.72
2022-09-23T21:40:53.393Z,101127.16
2022-09-23T21:43:57.784Z,101135.41
2022-09-23T21:47:00.469Z,101121.34
2022-09-23T21:50:05.172Z,101127.69
2022-09-23T21:53:08.805Z,101123.56
2022-09-23T21:56:18.065Z,101118.59
2022-09-23T21:59:23.056Z,101121.38
2022-09-23T22:02:25.775Z,101122.72
2022-09-23T22:05:29.759Z,101120.69
2022-09-23T22:08:37.054Z,101122.84
2022-09-23T22:11:58.601Z,101117.34
2022-09-23T22:15:01.191Z,101120.72
2022-09-23T22:18:05.559Z,101123.13
2022-09-23T22:21:09.954Z,101118.41
2022-09-23T22:24:13.803Z,101120.16
2022-09-23T22:27:18.905Z,101113.53
2022-09-23T22:30:38.975Z,101111.25
2022-09-23T22:33:41.701Z,101109.50
2022-09-23T22:36:45.672Z,101100.97
2022-09-23T22:39:48.684Z,101102.44
2022-09-23T22:42:51.503Z,101100.25
2022-09-23T22:45:54.110Z,101095.00
2022-09-23T22:48:56.979Z,101087.28
2022-09-23T22:52:01.415Z,101093.09
2022-09-23T22:55:04.620Z,101085.63
2022-09-23T22:58:30.817Z,101096.13
2022-09-23T23:01:30.656Z,101093.91
2022-09-23T23:04:33.865Z,101097.22
2022-09-23T23:07:37.966Z,101089.56
2022-09-23T23:10:41.017Z,101088.97
2022-09-23T23:13:44.255Z,101093.66
2022-09-23T23:16:47.331Z,101094.81
2022-09-23T23:19:50.725Z,101087.59
2022-09-23T23:22:55.053Z,101084.75
2022-09-23T23:25:57.871Z,101079.50
2022-09-23T23:29:01.517Z,101073.97
2022-09-23T23:32:05.186Z,101079.78
2022-09-23T23:35:08.962Z,101073.25
2022-09-23T23:38:13.018Z,101080.47
2022-09-23T23:41:17.638Z,101074.34
2022-09-23T23:44:20.375Z,101072.69
2022-09-23T23:47:23.423Z,101066.91
2022-09-23T23:50:26.462Z,101056.66
2022-09-23T23:53:33.855Z,101055.78
2022-09-23T23:56:36.411Z,101055.78
2022-09-23T23:59:39.118Z,101067.13
